Time;durP1;ratioP1;P1;durP2;ratioP2;P2;SDS_P1;SDS_P2;PMS_P1;PMS_P2;Temp;Humidity;BMP_temperature;BMP_pressure;BME280_temperature;BME280_humidity;BME280_pressure;Samples;Min_cycle;Max_cycle;Signal;HPM_P1;HPM_P2
2024/02/14 00:01:16;;;;;;;3.80;2.10;;;;;;;11.72;61.09;101366.16;4971928;28;113808;-81
2024/02/14 00:03:43;;;;;;;2.15;1.40;;;;;;;11.70;60.98;101341.47;4952557;28;122856;-81
2024/02/14 00:06:11;;;;;;;3.92;1.75;;;;;;;11.72;61.57;101339.63;4952689;28;122987;-81
2024/02/14 00:08:39;;;;;;;4.13;1.90;;;;;;;11.72;61.44;101339.63;4961675;28;114475;-81
2024/02/14 00:11:06;;;;;;;4.30;2.08;;;;;;;11.74;61.55;101332.47;4962366;28;113785;-81
2024/02/14 00:13:34;;;;;;;2.67;1.90;;;;;;;11.76;61.60;101329.75;4961615;28;124049;-81
2024/02/14 00:16:02;;;;;;;4.88;2.10;;;;;;;11.77;61.78;101331.44;4962804;28;123305;-81
2024/02/14 00:18:30;;;;;;;4.22;1.70;;;;;;;11.78;61.62;101333.19;4965781;28;113256;-81
2024/02/14 00:20:57;;;;;;;4.50;2.00;;;;;;;11.79;61.66;101330.47;4951489;28;113862;-79
2024/02/14 00:23:24;;;;;;;3.25;1.92;;;;;;;11.78;61.69;101328.75;4950731;28;123383;-80
2024/02/14 00:25:52;;;;;;;3.58;1.90;;;;;;;11.80;61.69;101332.19;4955073;28;123792;-79
2024/02/14 00:28:19;;;;;;;4.25;1.92;;;;;;;11.82;61.87;101317.06;4971343;28;114943;-79
2024/02/14 00:30:46;;;;;;;4.57;2.00;;;;;;;11.83;61.98;101316.16;4965132;28;114218;-79
2024/02/14 00:33:13;;;;;;;3.08;2.20;;;;;;;11.84;61.98;101312.53;4978648;28;123897;-80
2024/02/14 00:35:41;;;;;;;3.92;1.98;;;;;;;11.84;61.97;101312.53;4970183;28;123679;-79
2024/02/14 00:38:08;;;;;;;3.30;2.05;;;;;;;11.85;62.07;101308.97;4964994;28;114436;-80
2024/02/14 00:40:35;;;;;;;3.75;2.10;;;;;;;11.87;62.27;101296.50;4966312;28;113702;-80
2024/02/14 00:43:02;;;;;;;5.70;2.05;;;;;;;11.90;62.30;101299.97;4966300;28;123656;-80
2024/02/14 00:45:29;;;;;;;7.18;2.30;;;;;;;11.90;62.40;101289.38;4945423;28;123250;-79
2024/02/14 00:47:57;;;;;;;3.95;2.28;;;;;;;11.92;62.35;101298.13;4957532;28;114268;-79
2024/02/14 00:50:25;;;;;;;3.25;1.98;;;;;;;11.93;62.44;101299.88;4940176;28;112839;-79
2024/02/14 00:52:52;;;;;;;3.10;2.30;;;;;;;11.96;62.50;101297.06;4959497;28;123351;-79
2024/02/14 00:55:19;;;;;;;4.70;2.20;;;;;;;11.97;62.51;101290.84;4974909;28;123626;-79
2024/02/14 00:57:46;;;;;;;3.50;2.40;;;;;;;11.97;62.65;101296.13;4963668;28;113740;-79
2024/02/14 01:00:14;;;;;;;4.57;2.38;;;;;;;12.00;62.50;101293.38;4959792;28;113575;-80
2024/02/14 01:02:41;;;;;;;3.22;2.38;;;;;;;12.00;62.74;101285.41;4958327;28;123578;-80
2024/02/14 01:05:09;;;;;;;3.72;2.40;;;;;;;12.01;62.61;101292.41;4962227;28;124111;-79
2024/02/14 01:07:36;;;;;;;3.38;2.40;;;;;;;12.04;62.69;101294.94;4955986;28;113701;-80
2024/02/14 01:10:04;;;;;;;5.82;2.50;;;;;;;12.06;62.62;101301.06;4967740;28;114082;-80
2024/02/14 01:12:31;;;;;;;3.95;2.50;;;;;;;12.08;62.77;101293.88;4946961;28;123273;-80
2024/02/14 01:14:58;;;;;;;5.72;2.33;;;;;;;12.10;62.90;101296.47;4970899;28;123521;-80
2024/02/14 01:17:26;;;;;;;5.57;2.70;;;;;;;12.10;62.81;101293.81;4955710;28;115028;-79
2024/02/14 01:19:53;;;;;;;5.97;2.70;;;;;;;12.12;62.88;101290.16;4969809;28;114689;-80
2024/02/14 01:22:21;;;;;;;4.55;2.72;;;;;;;12.13;63.01;101286.56;4970675;28;122635;-80
2024/02/14 01:24:48;;;;;;;4.25;2.35;;;;;;;12.15;62.87;101290.03;4984712;28;123945;-80
2024/02/14 01:27:16;;;;;;;3.50;2.50;;;;;;;12.17;62.95;101290.81;4954874;28;114071;-80
2024/02/14 01:29:43;;;;;;;4.53;2.67;;;;;;;12.21;63.20;101300.38;4953534;28;115176;-80
2024/02/14 01:32:11;;;;;;;5.60;2.65;;;;;;;12.24;62.85;101300.25;4970268;28;123158;-79
2024/02/14 01:34:38;;;;;;;3.72;2.60;;;;;;;12.25;62.87;101296.63;4971363;28;123790;-80
2024/02/14 01:37:06;;;;;;;4.68;2.88;;;;;;;12.27;62.85;101305.41;4967385;28;114789;-80
2024/02/14 01:39:33;;;;;;;5.00;3.10;;;;;;;12.28;62.81;101300.94;4961710;28;112873;-80
2024/02/14 01:42:00;;;;;;;5.03;3.10;;;;;;;12.31;62.98;101299.97;4955882;28;123980;-80
2024/02/14 01:44:27;;;;;;;4.35;2.83;;;;;;;12.32;63.06;101296.34;4971264;28;123785;-80
2024/02/14 01:46:55;;;;;;;3.63;2.90;;;;;;;12.34;62.98;101299.78;4972291;28;113997;-79
2024/02/14 01:49:22;;;;;;;5.43;3.22;;;;;;;12.35;63.13;101296.22;4971071;28;114704;-80
2024/02/14 01:51:50;;;;;;;4.15;2.97;;;;;;;12.37;63.02;101289.03;4953489;28;123354;-80
2024/02/14 01:54:18;;;;;;;6.63;2.97;;;;;;;12.40;63.03;101294.22;4970600;28;123976;-80
2024/02/14 01:56:45;;;;;;;4.65;3.05;;;;;;;12.42;63.11;101292.38;4969558;28;114416;-81
2024/02/14 01:59:15;;;;;;;5.55;3.10;;;;;;;12.43;62.97;101299.38;4971778;28;113897;-80
2024/02/14 02:01:43;;;;;;;5.32;3.15;;;;;;;12.44;63.09;101295.81;4970265;28;124508;-80
2024/02/14 02:04:10;;;;;;;6.10;2.88;;;;;;;12.46;63.09;101304.56;4970454;28;123012;-80
2024/02/14 02:06:40;;;;;;;5.53;3.22;;;;;;;12.47;63.11;101295.69;4975982;28;116177;-80
2024/02/14 02:09:07;;;;;;;4.65;3.10;;;;;;;12.49;62.94;101292.94;4974503;28;113398;-80
2024/02/14 02:11:53;;;;;;;4.57;3.10;;;;;;;12.49;63.06;101299.13;4975638;28;122474;-78
2024/02/14 02:14:21;;;;;;;6.68;3.10;;;;;;;12.51;63.08;101281.31;4984085;28;123526;-79
2024/02/14 02:16:49;;;;;;;5.25;3.33;;;;;;;12.53;63.01;101290.06;4938786;28;112616;-79
2024/02/14 02:19:16;;;;;;;9.07;3.30;;;;;;;12.55;63.20;101295.31;4962714;28;113234;-79
2024/02/14 02:21:46;;;;;;;5.35;3.05;;;;;;;12.58;63.22;101288.09;4951817;28;124862;-79
2024/02/14 02:24:13;;;;;;;5.80;3.45;;;;;;;12.59;63.14;101289.78;4950525;28;123093;-79
2024/02/14 02:26:40;;;;;;;7.05;3.30;;;;;;;12.61;63.07;101292.38;4950777;28;113300;-79
2024/02/14 02:29:07;;;;;;;8.90;2.90;;;;;;;12.63;63.05;101299.34;4952004;28;114164;-80
2024/02/14 02:31:35;;;;;;;5.43;3.10;;;;;;;12.64;63.00;101303.72;4960271;28;122994;-79
2024/02/14 02:34:02;;;;;;;6.35;3.15;;;;;;;12.65;63.13;101305.44;4964892;28;123281;-79
2024/02/14 02:36:30;;;;;;;5.78;3.22;;;;;;;12.65;63.16;101294.81;4956805;28;113537;-79
2024/02/14 02:38:58;;;;;;;5.90;3.00;;;;;;;12.68;63.10;101298.25;4951012;28;113747;-80
2024/02/14 02:41:25;;;;;;;5.70;3.00;;;;;;;12.70;63.12;101296.41;4951457;28;124414;-80
2024/02/14 02:43:54;;;;;;;6.13;2.85;;;;;;;12.70;63.06;101301.72;4956106;28;123773;-79
2024/02/14 02:46:22;;;;;;;4.80;2.63;;;;;;;12.70;63.25;101291.94;4977575;28;114246;-79
2024/02/14 02:48:50;;;;;;;6.03;2.80;;;;;;;12.71;63.21;101298.97;4962921;28;113975;-79
2024/02/14 02:51:18;;;;;;;5.40;3.00;;;;;;;12.72;63.29;101294.53;4951298;28;123937;-79
2024/02/14 02:53:45;;;;;;;4.45;2.97;;;;;;;12.73;63.34;101293.59;4964568;28;124773;-80
2024/02/14 02:56:14;;;;;;;4.97;3.05;;;;;;;12.72;63.39;101284.78;4975457;28;114465;-79
2024/02/14 02:58:41;;;;;;;5.43;2.67;;;;;;;12.74;63.11;101290.00;4965107;28;113200;-79
2024/02/14 03:01:09;;;;;;;5.22;3.13;;;;;;;12.75;63.39;101289.06;4950927;28;125043;-79
2024/02/14 03:03:38;;;;;;;5.40;2.97;;;;;;;12.74;63.25;101298.84;4938036;28;123412;-79
2024/02/14 03:06:06;;;;;;;3.88;2.45;;;;;;;12.75;63.41;101283.75;4951761;28;114118;-79
2024/02/14 03:08:34;;;;;;;5.95;2.80;;;;;;;12.74;63.31;101282.03;4957851;28;113732;-80
2024/02/14 03:11:04;;;;;;;5.60;3.00;;;;;;;12.74;63.35;101282.03;4962973;28;123644;-79
2024/02/14 03:13:31;;;;;;;4.88;3.10;;;;;;;12.75;63.60;101289.06;4948914;28;123623;-80
2024/02/14 03:15:59;;;;;;;4.95;3.25;;;;;;;12.76;63.61;101304.09;4965451;28;114667;-80
2024/02/14 03:18:26;;;;;;;5.38;3.10;;;;;;;12.76;63.61;101296.13;4959053;28;112244;-80
2024/02/14 03:20:54;;;;;;;5.40;3.15;;;;;;;12.76;63.73;101301.44;4976635;28;124406;-80
2024/02/14 03:23:22;;;;;;;9.00;3.50;;;;;;;12.75;63.67;101300.59;4968801;28;123845;-80
2024/02/14 03:25:49;;;;;;;4.93;3.00;;;;;;;12.76;63.87;101301.44;4956661;28;114524;-80
2024/02/14 03:28:16;;;;;;;6.57;3.38;;;;;;;12.77;63.82;101297.81;4967948;28;113484;-80
2024/02/14 03:30:44;;;;;;;5.82;3.30;;;;;;;12.79;63.94;101301.28;4968273;28;124030;-80
2024/02/14 03:33:11;;;;;;;6.40;3.40;;;;;;;12.80;63.81;101309.19;4950624;28;122696;-80
2024/02/14 03:35:38;;;;;;;5.35;3.35;;;;;;;12.83;63.85;101308.19;4961594;28;117648;-80
2024/02/14 03:38:08;;;;;;;6.03;3.60;;;;;;;12.83;63.77;101292.25;4967245;28;119049;-80
2024/02/14 03:40:37;;;;;;;6.10;3.40;;;;;;;12.84;64.00;101307.25;4984747;28;123213;-80
2024/02/14 03:43:05;;;;;;;4.47;3.30;;;;;;;12.86;63.97;101302.72;4964621;28;124074;-80
2024/02/14 03:45:32;;;;;;;7.55;3.40;;;;;;;12.87;63.74;101309.78;4965251;28;120287;-80
2024/02/14 03:47:59;;;;;;;8.05;3.80;;;;;;;12.88;63.83;101316.78;4960062;28;119550;-79
2024/02/14 03:50:27;;;;;;;4.93;3.15;;;;;;;12.89;64.08;101318.53;4958753;28;123485;-80
2024/02/14 03:52:55;;;;;;;5.97;3.53;;;;;;;12.91;64.04;101321.97;4957815;28;123573;-80
2024/02/14 03:55:23;;;;;;;5.60;3.40;;;;;;;12.93;63.99;101317.44;4952714;28;119330;-80
2024/02/14 03:57:50;;;;;;;4.47;3.38;;;;;;;12.95;64.13;101307.59;4957518;28;118524;-80
2024/02/14 04:00:18;;;;;;;6.03;3.33;;;;;;;12.96;63.93;101313.75;4964841;28;124250;-80
2024/02/14 04:02:48;;;;;;;5.18;3.50;;;;;;;12.99;63.99;101303.84;4965358;28;124328;-80
2024/02/14 04:05:16;;;;;;;8.98;3.47;;;;;;;13.00;64.08;101305.59;4969744;28;119192;-80
2024/02/14 04:07:48;;;;;;;6.22;3.30;;;;;;;13.03;64.06;101316.09;4958373;28;118004;-79
2024/02/14 04:10:16;;;;;;;7.88;3.70;;;;;;;13.05;64.01;101314.22;4945186;28;124365;-80
2024/02/14 04:12:43;;;;;;;7.63;3.78;;;;;;;13.07;63.99;101321.25;4946504;28;123544;-80
2024/02/14 04:15:11;;;;;;;8.10;3.40;;;;;;;13.08;64.11;101320.31;4948076;28;119586;-80
2024/02/14 04:17:41;;;;;;;6.47;3.20;;;;;;;13.09;63.92;101319.38;4949237;28;118748;-80
2024/02/14 04:20:09;;;;;;;8.30;3.20;;;;;;;13.11;63.93;101328.13;4971446;28;123730;-79
2024/02/14 04:22:36;;;;;;;7.57;3.40;;;;;;;13.13;63.85;101327.16;4969328;28;123686;-80
2024/02/14 04:25:04;;;;;;;4.60;3.28;;;;;;;13.15;63.99;101329.72;4956226;28;117269;-80
2024/02/14 04:27:31;;;;;;;5.00;3.38;;;;;;;13.15;64.05;101330.59;4970565;28;118548;-80
2024/02/14 04:29:58;;;;;;;5.32;3.42;;;;;;;13.16;63.92;101331.44;4968597;28;122105;-80
2024/02/14 04:32:25;;;;;;;9.02;3.40;;;;;;;13.17;64.21;101338.50;4961049;28;126952;-80
2024/02/14 04:34:53;;;;;;;5.32;3.38;;;;;;;13.17;63.97;101333.19;4965942;28;120372;-80
2024/02/14 04:37:20;;;;;;;6.95;3.38;;;;;;;13.20;64.08;101341.00;4983651;28;120067;-80
2024/02/14 04:39:48;;;;;;;6.82;2.97;;;;;;;13.21;64.09;101345.38;5004782;28;124056;-80
2024/02/14 04:42:15;;;;;;;6.53;3.38;;;;;;;13.24;64.06;101339.91;4969262;28;124338;-80
2024/02/14 04:44:42;;;;;;;6.78;3.22;;;;;;;13.24;64.03;101345.22;4970414;28;119668;-80
2024/02/14 04:47:10;;;;;;;5.40;3.20;;;;;;;13.24;64.18;101350.53;4968497;28;117266;-80
2024/02/14 04:49:37;;;;;;;9.20;3.00;;;;;;;13.25;64.01;101352.28;4982925;28;123871;-80
2024/02/14 04:52:05;;;;;;;6.18;3.20;;;;;;;13.28;64.08;101354.81;4968264;28;123061;-80
2024/02/14 04:54:32;;;;;;;7.47;3.20;;;;;;;13.30;64.17;101350.31;4984862;28;117421;-80
2024/02/14 04:56:59;;;;;;;4.65;2.83;;;;;;;13.32;63.83;101359.06;4997516;28;119039;-80
2024/02/14 04:59:30;;;;;;;6.45;3.33;;;;;;;13.33;63.81;101366.09;4965996;28;122456;-80
2024/02/14 05:01:57;;;;;;;7.72;3.25;;;;;;;13.33;63.79;101360.78;4954036;28;124110;-80
2024/02/14 05:04:24;;;;;;;7.57;3.40;;;;;;;13.32;63.94;101367.06;4964678;28;119097;-80
2024/02/14 05:06:52;;;;;;;4.95;3.42;;;;;;;13.34;64.09;101373.16;4951058;28;118677;-80
2024/02/14 05:09:25;;;;;;;6.07;3.00;;;;;;;13.33;63.96;101365.25;4960495;28;124732;-80
2024/02/14 05:11:52;;;;;;;6.53;3.30;;;;;;;13.34;64.15;101365.19;4951971;28;124169;-80
2024/02/14 05:14:20;;;;;;;5.97;3.25;;;;;;;13.32;64.20;101364.38;4966495;28;119055;-80
2024/02/14 05:16:47;;;;;;;6.15;3.58;;;;;;;13.32;64.20;101364.38;4969492;28;118934;-80
2024/02/14 05:19:14;;;;;;;6.25;3.50;;;;;;;13.34;64.47;101373.16;4964517;28;122871;-80
2024/02/14 05:21:42;;;;;;;5.45;3.10;;;;;;;13.34;64.30;101370.50;4951121;28;124053;-80
2024/02/14 05:24:09;;;;;;;5.47;3.58;;;;;;;13.35;64.31;101369.53;4964706;28;119525;-80
2024/02/14 05:26:37;;;;;;;4.95;3.30;;;;;;;13.36;64.42;101371.28;4962592;28;119844;-80
2024/02/14 05:29:05;;;;;;;6.40;3.20;;;;;;;13.36;64.41;101371.28;4955886;28;123845;-81
2024/02/14 05:31:58;;;;;;;4.88;3.03;;;;;;;13.35;64.50;101369.53;4968775;28;123830;-80
2024/02/14 05:34:25;;;;;;;5.47;3.47;;;;;;;13.38;64.54;101374.72;4958089;28;119623;-81
2024/02/14 05:36:53;;;;;;;6.65;3.28;;;;;;;13.39;64.47;101375.59;4964005;28;119805;-80
2024/02/14 05:39:20;;;;;;;4.60;3.28;;;;;;;13.39;64.54;101379.13;4963161;28;123789;-80
2024/02/14 05:41:49;;;;;;;7.18;3.40;;;;;;;13.40;64.56;101377.31;4958596;28;124334;-80
2024/02/14 05:44:16;;;;;;;6.35;3.22;;;;;;;13.40;64.61;101370.19;4967689;28;119885;-80
2024/02/14 05:46:43;;;;;;;6.65;3.45;;;;;;;13.40;64.62;101378.19;4964897;28;117111;-80
2024/02/14 05:49:10;;;;;;;5.43;3.22;;;;;;;13.41;64.69;101379.91;4949979;28;123624;-80
2024/02/14 05:51:38;;;;;;;4.40;2.55;;;;;;;13.41;64.73;101379.91;4966229;28;123740;-80
2024/02/14 05:54:05;;;;;;;4.30;2.20;;;;;;;13.42;64.58;101386.09;4967105;28;118716;-80
2024/02/14 05:56:32;;;;;;;4.88;2.28;;;;;;;13.43;64.44;101378.03;4961291;28;118030;-80
2024/02/14 05:59:00;;;;;;;4.53;2.00;;;;;;;13.46;64.58;101386.81;4941594;28;123451;-80
2024/02/14 06:01:28;;;;;;;4.13;1.95;;;;;;;13.46;64.43;101386.81;4966835;28;123665;-80
2024/02/14 06:03:56;;;;;;;4.05;2.20;;;;;;;13.44;64.46;101379.75;4958332;28;119743;-80
2024/02/14 06:06:23;;;;;;;4.57;2.30;;;;;;;13.46;64.34;101392.13;4961678;28;118745;-80
2024/02/14 06:08:50;;;;;;;3.33;2.05;;;;;;;13.46;64.40;101386.81;4967103;28;123726;-80
2024/02/14 06:11:20;;;;;;;5.60;2.25;;;;;;;13.44;64.43;101398.38;4964804;28;124056;-80
2024/02/14 06:13:48;;;;;;;5.20;2.20;;;;;;;13.44;64.43;101393.06;4963996;28;120900;-80
2024/02/14 06:16:15;;;;;;;5.07;2.15;;;;;;;13.44;64.46;101390.38;4971501;28;119625;-80
2024/02/14 06:18:43;;;;;;;3.05;1.90;;;;;;;13.46;64.37;101397.44;4968801;28;122974;-80
2024/02/14 06:21:11;;;;;;;4.32;2.25;;;;;;;13.46;64.35;101398.31;4964762;28;122564;-80
2024/02/14 06:23:39;;;;;;;6.75;2.47;;;;;;;13.46;64.38;101397.44;4969585;28;119932;-80
2024/02/14 06:26:07;;;;;;;4.63;2.33;;;;;;;13.47;64.48;101404.47;4970304;28;118710;-80
2024/02/14 06:28:34;;;;;;;5.53;1.85;;;;;;;13.46;64.42;101413.41;4967959;28;123971;-80
2024/02/14 06:31:01;;;;;;;3.45;2.05;;;;;;;13.46;64.34;101408.09;4953152;28;123517;-80
2024/02/14 06:33:29;;;;;;;4.75;2.40;;;;;;;13.46;64.38;101413.41;4963723;28;119544;-80
2024/02/14 06:35:56;;;;;;;4.13;2.40;;;;;;;13.47;64.42;101420.44;4978477;28;118590;-80
2024/02/14 06:38:24;;;;;;;4.22;2.17;;;;;;;13.48;64.26;101427.50;4976125;28;123837;-80
2024/02/14 06:40:51;;;;;;;4.43;2.22;;;;;;;13.48;64.37;101427.50;4963526;28;121842;-80
2024/02/14 06:43:19;;;;;;;4.50;2.10;;;;;;;13.50;64.37;101430.94;4966046;28;118479;-79
2024/02/14 06:45:47;;;;;;;5.05;2.40;;;;;;;13.49;64.05;101426.59;4957682;28;119025;-79
2024/02/14 06:48:14;;;;;;;3.75;2.42;;;;;;;13.50;64.29;101428.28;4965816;28;124530;-79
2024/02/14 06:50:42;;;;;;;4.32;2.35;;;;;;;13.50;64.39;101428.28;4958764;28;123515;-81
2024/02/14 06:53:09;;;;;;;4.10;2.38;;;;;;;13.50;64.47;101430.94;4958495;28;118818;-80
2024/02/14 06:55:36;;;;;;;6.00;2.53;;;;;;;13.51;64.33;101432.69;4962642;28;119385;-81
2024/02/14 06:58:04;;;;;;;4.72;2.42;;;;;;;13.52;64.44;101426.41;4947131;28;123445;-81
2024/02/14 07:00:33;;;;;;;3.88;2.38;;;;;;;13.52;64.39;101434.41;4942516;28;122728;-81
2024/02/14 07:03:00;;;;;;;6.63;2.75;;;;;;;13.52;64.40;101434.41;4975333;28;119374;-81
2024/02/14 07:05:29;;;;;;;5.57;2.70;;;;;;;13.53;64.48;101436.16;4955647;28;121174;-81
2024/02/14 07:07:56;;;;;;;5.68;2.80;;;;;;;13.53;64.45;101436.16;4963623;28;123701;-81
2024/02/14 07:10:24;;;;;;;4.80;3.05;;;;;;;13.55;64.51;101450.22;4964758;28;122889;-81
2024/02/14 07:12:51;;;;;;;6.13;3.25;;;;;;;13.54;64.55;101440.50;4949235;28;118868;-81
2024/02/14 07:15:19;;;;;;;6.18;3.00;;;;;;;13.56;64.53;101441.28;4964375;28;118712;-81
2024/02/14 07:17:47;;;;;;;6.93;2.80;;;;;;;13.57;64.59;101443.03;4978064;28;123802;-81
2024/02/14 07:20:15;;;;;;;4.25;2.88;;;;;;;13.58;64.70;101447.41;4946082;28;123644;-81
2024/02/14 07:22:45;;;;;;;4.95;3.00;;;;;;;13.60;64.60;101453.53;4957313;28;119754;-81
2024/02/14 07:25:13;;;;;;;5.57;2.97;;;;;;;13.60;64.67;101448.22;4970130;28;118953;-81
2024/02/14 07:27:40;;;;;;;6.10;3.50;;;;;;;13.61;64.63;101449.94;4963502;28;123013;-82
2024/02/14 07:30:08;;;;;;;7.13;3.10;;;;;;;13.64;64.69;101449.78;4950014;28;123453;-82
2024/02/14 07:32:37;;;;;;;5.95;2.92;;;;;;;13.64;64.56;101449.78;4972661;28;119265;-82
2024/02/14 07:35:05;;;;;;;6.45;3.13;;;;;;;13.65;64.72;101451.50;4965763;28;120733;-81
2024/02/14 07:37:32;;;;;;;5.15;2.75;;;;;;;13.67;64.79;101444.31;4952391;28;123798;-81
2024/02/14 07:39:59;;;;;;;6.40;3.33;;;;;;;13.68;64.68;101446.03;4964189;28;123072;-81
2024/02/14 07:42:27;;;;;;;6.63;2.78;;;;;;;13.70;64.73;101444.16;4965114;28;119745;-82
2024/02/14 07:44:56;;;;;;;5.25;2.70;;;;;;;13.71;64.71;101451.22;4965247;28;119182;-82
2024/02/14 07:47:23;;;;;;;6.80;2.88;;;;;;;13.72;64.71;101447.63;4944345;28;124737;-81
2024/02/14 07:49:53;;;;;;;6.13;3.40;;;;;;;13.74;64.77;101451.06;4927170;28;123763;-81
2024/02/14 07:52:21;;;;;;;7.38;3.17;;;;;;;13.75;64.82;101450.13;4947600;28;118964;-81
2024/02/14 07:54:54;;;;;;;5.28;2.80;;;;;;;13.77;64.64;101455.41;4962636;28;120486;-81
2024/02/14 07:57:23;;;;;;;6.55;3.17;;;;;;;13.77;64.72;101456.25;4974231;28;123738;-81
2024/02/14 07:59:51;;;;;;;6.82;3.13;;;;;;;13.79;64.64;101451.72;4965342;28;123121;-80
2024/02/14 08:02:19;;;;;;;5.72;2.97;;;;;;;13.79;64.70;101457.03;4964713;28;118534;-80
2024/02/14 08:04:46;;;;;;;5.93;3.33;;;;;;;13.80;64.68;101455.22;4967094;28;118730;-81
2024/02/14 08:07:15;;;;;;;8.52;3.38;;;;;;;13.79;64.72;101458.84;4965195;28;124187;-80
2024/02/14 08:09:42;;;;;;;5.70;3.10;;;;;;;13.77;64.80;101456.25;4962507;28;122916;-81
2024/02/14 08:12:10;;;;;;;8.05;3.72;;;;;;;13.79;64.83;101459.69;4962668;28;119690;-81
2024/02/14 08:14:37;;;;;;;8.32;3.80;;;;;;;13.78;64.78;101463.28;4937273;28;118686;-81
2024/02/14 08:17:04;;;;;;;5.43;3.80;;;;;;;13.79;64.78;101470.34;4948695;28;123031;-80
2024/02/14 08:19:31;;;;;;;6.90;3.78;;;;;;;13.78;64.73;101465.94;4953089;28;124020;-81
2024/02/14 08:22:00;;;;;;;6.78;3.92;;;;;;;13.78;64.49;101468.59;4964303;28;119731;-80
2024/02/14 08:24:27;;;;;;;8.48;4.40;;;;;;;13.79;64.87;101475.66;4966308;28;118842;-80
2024/02/14 08:26:55;;;;;;;7.28;4.60;;;;;;;13.78;64.86;101479.25;4964519;28;124804;-80
2024/02/14 08:29:22;;;;;;;7.95;4.90;;;;;;;13.78;64.86;101473.94;4946412;28;122891;-80
2024/02/14 08:31:50;;;;;;;10.40;4.60;;;;;;;13.80;65.05;101477.38;4956546;28;118707;-80
2024/02/14 08:34:17;;;;;;;8.43;4.68;;;;;;;13.81;64.91;101473.78;4967426;28;118422;-81
2024/02/14 08:36:45;;;;;;;7.95;4.50;;;;;;;13.81;65.00;101479.13;4966117;28;124404;-81
2024/02/14 08:39:12;;;;;;;5.75;3.83;;;;;;;13.82;64.97;101478.19;4966431;28;122150;-80
2024/02/14 08:41:41;;;;;;;8.10;3.92;;;;;;;13.82;65.01;101475.53;4965646;28;120826;-80
2024/02/14 08:44:08;;;;;;;8.80;4.55;;;;;;;13.83;65.10;101471.91;4966842;28;120526;-81
2024/02/14 08:46:35;;;;;;;7.88;4.28;;;;;;;13.85;64.96;101473.66;4966089;28;123753;-80
2024/02/14 08:49:05;;;;;;;9.63;4.25;;;;;;;13.85;64.96;101473.66;4980748;28;124955;-81
2024/02/14 08:51:36;;;;;;;7.15;4.25;;;;;;;13.85;65.08;101473.66;4979447;28;118701;-81
2024/02/14 08:54:06;;;;;;;7.40;3.88;;;;;;;13.86;65.14;101472.69;4977484;28;118348;-80
2024/02/14 08:56:34;;;;;;;6.75;3.95;;;;;;;13.89;65.19;101478.75;4963859;28;123665;-81
2024/02/14 08:59:02;;;;;;;6.18;4.13;;;;;;;13.91;65.06;101484.00;4957384;28;124228;-81
2024/02/14 09:01:30;;;;;;;6.53;3.97;;;;;;;13.92;65.13;101491.03;4965511;28;119490;-81
2024/02/14 09:04:00;;;;;;;9.13;4.20;;;;;;;13.92;65.19;101485.72;4953686;28;118891;-80
2024/02/14 09:06:27;;;;;;;7.97;4.43;;;;;;;13.92;65.18;101486.59;4939815;28;123437;-80
2024/02/14 09:08:55;;;;;;;8.45;4.13;;;;;;;13.95;65.15;101490.91;4952818;28;123650;-81
2024/02/14 09:11:22;;;;;;;7.28;4.70;;;;;;;13.95;65.19;101490.91;4945312;28;118734;-80
2024/02/14 09:13:53;;;;;;;6.53;4.32;;;;;;;13.98;65.20;101482.78;4981836;28;118859;-80
2024/02/14 09:16:22;;;;;;;7.82;3.97;;;;;;;13.99;65.14;101488.03;4970442;28;124228;-80
2024/02/14 09:18:50;;;;;;;7.43;4.15;;;;;;;14.01;65.25;101482.59;4971556;28;123597;-81
2024/02/14 09:21:17;;;;;;;6.45;3.80;;;;;;;14.06;65.03;101493.03;4968689;28;119499;-81
2024/02/14 09:23:48;;;;;;;6.28;4.03;;;;;;;14.07;65.53;101490.31;4967506;28;119005;-81
2024/02/14 09:26:18;;;;;;;11.07;4.93;;;;;;;14.10;65.34;101495.47;4953175;28;122990;-81
2024/02/14 09:28:46;;;;;;;9.60;4.47;;;;;;;14.14;65.29;101501.50;4968277;28;124958;-81
2024/02/14 09:31:20;;;;;;;9.32;3.90;;;;;;;14.15;65.34;101509.44;4968448;28;120770;-81
2024/02/14 09:33:48;;;;;;;6.65;4.32;;;;;;;14.17;65.27;101507.56;4963954;28;119849;-81
2024/02/14 09:36:15;;;;;;;7.30;4.05;;;;;;;14.18;65.21;101514.63;4983676;28;123682;-81
2024/02/14 09:38:43;;;;;;;6.57;3.70;;;;;;;14.20;65.29;101519.84;4958722;28;125205;-80
2024/02/14 09:41:26;;;;;;;7.55;3.78;;;;;;;14.21;65.30;101514.44;4950177;28;119115;-81
2024/02/14 09:43:56;;;;;;;7.00;4.00;;;;;;;14.23;65.34;101516.19;4963079;28;96814;-81
2024/02/14 09:46:26;;;;;;;7.97;3.97;;;;;;;14.26;65.29;101513.34;4988475;28;122090;-81
2024/02/14 09:48:55;;;;;;;7.05;3.80;;;;;;;14.28;65.25;101514.13;4971492;28;123649;-81
2024/02/14 09:51:24;;;;;;;8.70;3.60;;;;;;;14.30;65.39;101506.94;4984248;28;119723;-81
2024/02/14 09:53:54;;;;;;;6.53;3.47;;;;;;;14.35;65.36;101515.56;4988162;28;117328;-81
2024/02/14 09:56:24;;;;;;;7.82;3.58;;;;;;;14.36;65.21;101522.63;4997491;28;125757;-81
2024/02/14 09:58:56;;;;;;;9.85;3.38;;;;;;;14.38;65.26;101512.75;4981506;28;124547;-81
2024/02/14 10:01:25;;;;;;;10.77;4.13;;;;;;;14.40;65.25;101524.19;4985843;28;118432;-80
2024/02/14 10:03:54;;;;;;;5.20;3.28;;;;;;;14.44;65.35;101535.56;4976868;28;120453;-81
2024/02/14 10:06:22;;;;;;;7.47;3.25;;;;;;;14.44;65.12;101525.75;4965428;28;123815;-80
2024/02/14 10:08:50;;;;;;;4.93;3.30;;;;;;;14.48;65.10;101527.31;4983675;28;124132;-81
2024/02/14 10:11:33;;;;;;;6.90;3.35;;;;;;;14.49;65.07;101523.72;4962247;28;119837;-81
2024/02/14 10:14:03;;;;;;;8.55;3.17;;;;;;;14.51;65.13;101529.00;4962926;28;120366;-81
2024/02/14 10:16:32;;;;;;;7.10;3.17;;;;;;;14.55;65.08;101544.75;4964924;28;123905;-80
2024/02/14 10:18:59;;;;;;;5.78;3.38;;;;;;;14.57;65.42;101524.22;4949913;28;123716;-80
2024/02/14 10:21:28;;;;;;;5.00;3.00;;;;;;;14.62;65.30;101517.78;4961404;28;120498;-80
2024/02/14 10:23:59;;;;;;;4.88;3.35;;;;;;;14.67;65.43;101531.75;4963527;28;119130;-80
2024/02/14 10:26:31;;;;;;;7.28;3.42;;;;;;;14.69;65.25;101530.75;4957316;28;123925;-80
2024/02/14 10:28:59;;;;;;;6.13;3.58;;;;;;;14.75;65.46;101529.59;4943433;28;124243;-80
2024/02/14 10:31:26;;;;;;;6.45;3.45;;;;;;;14.78;65.36;101530.25;4963456;28;118723;-81
2024/02/14 10:33:55;;;;;;;5.80;3.25;;;;;;;14.84;65.24;101534.41;4952776;28;117456;-81
2024/02/14 10:36:23;;;;;;;5.70;3.05;;;;;;;14.86;65.22;101540.56;4964234;28;123583;-81
2024/02/14 10:38:51;;;;;;;5.72;3.38;;;;;;;14.90;65.18;101550.13;4949738;28;123686;-81
2024/02/14 10:41:18;;;;;;;7.88;3.58;;;;;;;14.91;65.01;101546.50;4958355;28;118680;-81
2024/02/14 10:43:46;;;;;;;6.72;3.80;;;;;;;14.93;64.92;101544.59;4979768;28;117926;-80
2024/02/14 10:46:22;;;;;;;6.85;3.10;;;;;;;14.93;65.06;101554.41;4962907;28;122994;-81
2024/02/14 10:48:58;;;;;;;7.78;3.00;;;;;;;14.93;64.97;101554.41;4955261;28;123795;-81
2024/02/14 10:51:30;;;;;;;4.45;2.95;;;;;;;14.93;64.92;101565.94;4951127;28;118851;-81
2024/02/14 10:54:01;;;;;;;7.57;3.25;;;;;;;14.94;64.90;101562.34;4961657;28;118685;-81
2024/02/14 10:56:29;;;;;;;5.82;3.10;;;;;;;14.94;64.98;101550.81;4962269;28;123408;-80
2024/02/14 10:59:01;;;;;;;6.53;3.60;;;;;;;14.95;65.00;101548.06;4964813;28;124138;-81
2024/02/14 11:01:32;;;;;;;7.07;3.50;;;;;;;14.97;65.04;101550.63;4947951;28;118336;-81
2024/02/14 11:04:00;;;;;;;5.35;3.40;;;;;;;14.96;65.07;101549.78;4964821;28;118044;-81
2024/02/14 11:06:30;;;;;;;6.57;3.55;;;;;;;14.97;64.90;101551.53;4982379;28;124572;-81
2024/02/14 11:09:10;;;;;;;5.95;3.40;;;;;;;14.97;64.91;101546.19;4974643;28;122137;-81
2024/02/14 11:11:37;;;;;;;4.68;3.03;;;;;;;14.98;65.21;101550.56;4955711;28;120776;-81
2024/02/14 11:14:06;;;;;;;6.75;3.40;;;;;;;14.99;65.17;101549.63;4967017;28;119829;-81
2024/02/14 11:16:33;;;;;;;5.85;3.40;;;;;;;15.03;65.03;101554.78;4965326;28;123310;-81
2024/02/14 11:19:09;;;;;;;7.90;3.35;;;;;;;15.04;64.93;101556.53;4959708;28;124421;-81
2024/02/14 11:21:44;;;;;;;7.05;3.42;;;;;;;15.03;64.96;101545.00;4940679;28;119021;-81